Strona główna
METAR-TAF:

METAR-TAF

Lotnisko :

Żylina, Słowacja

Port lotniczy Żylina

Szerokość geograficzna: 49-14N, Długość geograficzna: 018-36-49E, wysokość: 312 m

Aktualna obserwacja pogody

Raport powstał 18 minut temu, godzina 21:00 UTC
Wiatr 8 kt od północny wschód
Temperatura -12°C
Wilgotność 61%
Ciśnienie 1024 hPa
Widzialność 10 km lub więcej
Brak chmur poniżej 1500 m i brak chmur cumulonimbus

METAR: LZZI 252100Z 05008KT CAVOK M12/M18 Q1024

czas: 22:18 (21:18 UTC)

Prognoza

Raport powstał 1 godzina i 18 minut temu, godzina 20:00 UTC
Prognoza ważna od 25 godzina 21 UTC do 26 godzina 06 UTC
Wiatr 6 kt od północny wschód
Widzialność 10 km lub więcej
Brak chmur poniżej 1500 m i brak chmur cumulonimbus
Stopniowe zmiany
od 26 godzina 04 UTC do 26 godzina 06 UTC
Wiatr 8 kt od północny wschód

TAF: LZZI 252000Z 2521/2606 05006KT CAVOK BECMG 2604/2606 04008KT

Obserwacja i prognoza pogody dla ponad 4000 lotnisk (raport METAR i TAF).

Dostępne stacje oznaczono żółtymi i czerwonymi punktami na mapie.

Najedź kursorem aby zobaczyć nazwę stacji.

Kliknij aby zobaczyć obserwacje i prognozy pogody.

Aby zmienić mapę: kliknij na zielony przycisk z czarnym krzyżykiem, aby powiększyć; na zielony przycisk z myślnikiem, aby pomniejszyć; na zielone strzałki, aby przejść do map sąsiednich.


METAR-TAF: